createdAt,value
2018-03-06T00:00:28.074Z,6.00
2018-03-06T00:02:56.439Z,6.10
2018-03-06T00:05:24.082Z,6.00
2018-03-06T00:07:52.464Z,5.90
2018-03-06T00:10:20.818Z,5.90
2018-03-06T00:12:48.466Z,5.80
2018-03-06T00:15:16.109Z,5.70
2018-03-06T00:17:43.779Z,5.80
2018-03-06T00:20:11.403Z,5.70
2018-03-06T00:22:39.000Z,5.70
2018-03-06T00:25:06.625Z,5.60
2018-03-06T00:27:34.270Z,5.60
2018-03-06T00:30:02.651Z,5.50
2018-03-06T00:32:30.251Z,5.50
2018-03-06T00:34:57.879Z,5.40
2018-03-06T00:37:26.246Z,5.30
2018-03-06T00:39:53.912Z,5.30
2018-03-06T00:42:21.549Z,5.30
2018-03-06T00:44:49.182Z,5.20
2018-03-06T00:47:16.799Z,5.20
2018-03-06T00:49:44.458Z,5.20
2018-03-06T00:52:12.865Z,5.10
2018-03-06T00:54:40.467Z,5.10
2018-03-06T00:57:08.114Z,5.20
2018-03-06T00:59:35.719Z,5.10
2018-03-06T01:02:03.388Z,5.00
2018-03-06T01:04:31.793Z,5.00
2018-03-06T01:06:59.435Z,5.00
2018-03-06T01:09:27.808Z,4.90
2018-03-06T01:11:56.227Z,4.90
2018-03-06T01:14:23.884Z,4.90
2018-03-06T01:16:51.498Z,4.90
2018-03-06T01:19:19.145Z,4.90
2018-03-06T01:21:46.787Z,5.00
2018-03-06T01:24:14.462Z,5.00
2018-03-06T01:26:42.086Z,5.10
2018-03-06T01:29:09.693Z,5.20
2018-03-06T01:31:37.360Z,5.10
2018-03-06T01:34:04.970Z,5.10
2018-03-06T01:36:32.607Z,5.00
2018-03-06T01:39:00.259Z,5.00
2018-03-06T01:41:27.896Z,5.00
2018-03-06T01:43:55.541Z,5.00
2018-03-06T01:46:23.203Z,4.90
2018-03-06T01:48:50.870Z,4.80
2018-03-06T01:51:18.487Z,4.70
2018-03-06T01:53:46.905Z,4.60
2018-03-06T01:56:14.515Z,4.60
2018-03-06T01:58:42.181Z,4.50
2018-03-06T02:01:09.796Z,4.50
2018-03-06T02:03:37.440Z,4.50
2018-03-06T02:06:05.075Z,4.60
2018-03-06T02:08:32.685Z,4.60
2018-03-06T02:11:02.228Z,4.60
2018-03-06T02:13:39.333Z,4.50
2018-03-06T02:16:17.000Z,4.60
2018-03-06T02:18:46.884Z,4.60
2018-03-06T02:21:16.934Z,4.50
2018-03-06T02:23:47.239Z,4.40
2018-03-06T02:26:16.888Z,4.40
2018-03-06T02:28:47.316Z,4.30
2018-03-06T02:31:17.010Z,4.30
2018-03-06T02:33:48.406Z,4.20
2018-03-06T02:36:18.104Z,4.30
2018-03-06T02:38:50.074Z,4.30
2018-03-06T02:41:19.773Z,4.20
2018-03-06T02:43:49.687Z,4.10
2018-03-06T02:46:19.447Z,4.10
2018-03-06T02:48:50.098Z,4.10
2018-03-06T02:51:19.160Z,4.10
2018-03-06T02:53:48.675Z,4.10
2018-03-06T02:56:18.800Z,4.10
2018-03-06T02:58:52.691Z,4.10
2018-03-06T03:01:22.457Z,4.20
2018-03-06T03:03:52.451Z,4.10
2018-03-06T03:06:29.652Z,4.10
2018-03-06T03:09:00.418Z,3.90
2018-03-06T03:11:31.879Z,3.90
2018-03-06T03:14:02.747Z,3.80
2018-03-06T03:16:34.255Z,3.80
2018-03-06T03:19:04.215Z,3.70
2018-03-06T03:21:35.763Z,3.60
2018-03-06T03:24:08.072Z,3.50
2018-03-06T03:26:38.852Z,3.50
2018-03-06T03:29:10.335Z,3.40
2018-03-06T03:31:42.089Z,3.40
2018-03-06T03:34:12.152Z,3.40
2018-03-06T03:36:42.831Z,3.50
2018-03-06T03:39:13.769Z,3.50
2018-03-06T03:41:43.897Z,3.50
2018-03-06T03:44:13.787Z,3.50
2018-03-06T03:46:44.300Z,3.40
2018-03-06T03:49:17.861Z,3.30
2018-03-06T03:51:46.964Z,3.30
2018-03-06T03:54:16.820Z,3.20
2018-03-06T03:56:46.833Z,3.20
2018-03-06T03:59:16.540Z,3.10
2018-03-06T04:01:47.033Z,3.10
2018-03-06T04:04:16.831Z,3.00
2018-03-06T04:06:46.089Z,3.10
2018-03-06T04:09:16.413Z,3.00
2018-03-06T04:11:46.760Z,3.00
2018-03-06T04:14:16.061Z,3.00
2018-03-06T04:16:46.091Z,3.00
2018-03-06T04:19:15.097Z,2.90
2018-03-06T04:21:44.279Z,2.90
2018-03-06T04:24:13.903Z,2.80
2018-03-06T04:26:42.537Z,2.90
2018-03-06T04:29:12.360Z,2.80
2018-03-06T04:31:41.719Z,2.80
2018-03-06T04:34:11.175Z,2.80
2018-03-06T04:36:40.445Z,2.80
2018-03-06T04:39:10.163Z,2.70
2018-03-06T04:41:39.448Z,2.70
2018-03-06T04:44:09.838Z,2.70
2018-03-06T04:46:38.267Z,2.60
2018-03-06T04:49:07.276Z,2.60
2018-03-06T04:51:36.565Z,2.60
2018-03-06T04:54:04.913Z,2.60
2018-03-06T04:56:33.860Z,2.60
2018-03-06T04:59:03.548Z,2.50
2018-03-06T05:01:31.240Z,2.50
2018-03-06T05:03:58.831Z,2.60
2018-03-06T05:06:26.510Z,2.60
2018-03-06T05:08:54.143Z,2.60
2018-03-06T05:11:21.755Z,2.60
2018-03-06T05:13:49.398Z,2.50
2018-03-06T05:16:17.039Z,2.40
2018-03-06T05:18:44.725Z,2.50
2018-03-06T05:21:12.366Z,2.50
2018-03-06T05:23:39.987Z,2.50
2018-03-06T05:26:08.378Z,2.40
2018-03-06T05:28:36.023Z,2.40
2018-03-06T05:31:04.399Z,2.30
2018-03-06T05:33:32.813Z,2.30
2018-03-06T05:36:00.415Z,2.30
2018-03-06T05:38:28.009Z,2.40
2018-03-06T05:40:56.430Z,2.40
2018-03-06T05:43:24.031Z,2.40
2018-03-06T05:45:52.430Z,2.30
2018-03-06T05:48:20.850Z,2.30
2018-03-06T05:50:48.504Z,2.20
2018-03-06T05:53:16.154Z,2.20
2018-03-06T05:55:43.746Z,2.20
2018-03-06T05:58:11.355Z,2.20
2018-03-06T06:00:39.766Z,2.20
2018-03-06T06:03:07.368Z,2.20
2018-03-06T06:05:35.036Z,2.30
2018-03-06T06:08:02.662Z,2.40
2018-03-06T06:10:31.066Z,2.60
2018-03-06T06:12:58.709Z,2.60
2018-03-06T06:15:26.350Z,2.70
2018-03-06T06:17:54.734Z,2.80
2018-03-06T06:20:23.151Z,2.80
2018-03-06T06:22:50.727Z,2.80
2018-03-06T06:25:18.372Z,2.90
2018-03-06T06:27:45.957Z,2.90
2018-03-06T06:30:13.587Z,2.90
2018-03-06T06:32:41.247Z,3.00
2018-03-06T06:35:08.846Z,3.00
2018-03-06T06:37:36.432Z,3.10
2018-03-06T06:40:04.829Z,3.10
2018-03-06T06:42:32.421Z,3.10
2018-03-06T06:44:59.999Z,3.10
2018-03-06T06:47:27.610Z,3.10
2018-03-06T06:49:55.202Z,3.10
2018-03-06T06:52:22.815Z,3.30
2018-03-06T06:54:51.212Z,3.50
2018-03-06T06:57:19.544Z,3.50
2018-03-06T06:59:47.172Z,3.50
2018-03-06T07:02:14.740Z,3.30
2018-03-06T07:04:42.351Z,3.30
2018-03-06T07:07:10.707Z,3.50
2018-03-06T07:09:38.335Z,3.50
2018-03-06T07:12:06.757Z,3.50
2018-03-06T07:14:34.389Z,3.50
2018-03-06T07:17:02.052Z,3.70
2018-03-06T07:19:29.639Z,3.70
2018-03-06T07:21:57.243Z,3.70
2018-03-06T07:24:24.835Z,3.70
2018-03-06T07:26:52.463Z,3.70
2018-03-06T07:29:20.801Z,3.90
2018-03-06T07:31:48.432Z,3.90
2018-03-06T07:34:15.997Z,4.10
2018-03-06T07:36:43.607Z,4.10
2018-03-06T07:39:12.018Z,4.30
2018-03-06T07:41:39.594Z,4.30
2018-03-06T07:44:07.262Z,4.40
2018-03-06T07:46:34.863Z,4.40
2018-03-06T07:49:02.452Z,4.30
2018-03-06T07:51:31.116Z,3.50
2018-03-06T07:53:59.523Z,3.40
2018-03-06T07:56:27.096Z,3.30
2018-03-06T07:58:54.744Z,3.70
2018-03-06T08:01:22.358Z,4.00
2018-03-06T08:03:50.057Z,4.30
2018-03-06T08:06:17.777Z,4.60
2018-03-06T08:08:45.504Z,4.60
2018-03-06T08:11:13.242Z,4.60
2018-03-06T08:13:40.853Z,4.50
2018-03-06T08:16:08.501Z,4.50
2018-03-06T08:18:36.885Z,4.70
2018-03-06T08:21:04.462Z,5.00
2018-03-06T08:23:32.091Z,5.10
2018-03-06T08:25:59.713Z,5.20
2018-03-06T08:28:27.311Z,5.30
2018-03-06T08:30:54.930Z,5.40
2018-03-06T08:33:22.523Z,5.70
2018-03-06T08:35:50.903Z,6.00
2018-03-06T08:38:19.260Z,6.40
2018-03-06T08:40:46.882Z,6.40
2018-03-06T08:43:14.646Z,6.80
2018-03-06T08:45:42.217Z,6.70
2018-03-06T08:48:09.798Z,6.60
2018-03-06T08:50:37.432Z,6.60
2018-03-06T08:53:05.078Z,7.50
2018-03-06T08:55:32.790Z,8.30
2018-03-06T08:58:00.419Z,8.70
2018-03-06T09:00:28.096Z,8.90
2018-03-06T09:02:56.920Z,9.00
2018-03-06T09:05:24.546Z,9.00
2018-03-06T09:07:52.187Z,9.10
2018-03-06T09:10:19.770Z,8.70
2018-03-06T09:12:47.418Z,8.90
2018-03-06T09:15:14.996Z,9.20
2018-03-06T09:17:42.657Z,10.00
2018-03-06T09:20:10.337Z,10.30
2018-03-06T09:22:37.947Z,10.70
2018-03-06T09:25:05.638Z,10.70
2018-03-06T09:27:33.238Z,10.70
2018-03-06T09:30:00.857Z,10.80
2018-03-06T09:32:28.502Z,10.60
2018-03-06T09:34:56.151Z,10.60
2018-03-06T09:37:23.776Z,10.90
2018-03-06T09:39:51.429Z,11.20
2018-03-06T09:42:19.044Z,11.40
2018-03-06T09:44:46.679Z,10.80
2018-03-06T09:47:15.191Z,10.80
2018-03-06T09:49:42.957Z,10.80
2018-03-06T09:52:10.737Z,11.30
2018-03-06T09:54:38.362Z,11.90
2018-03-06T09:57:05.997Z,12.50
2018-03-06T09:59:33.652Z,12.80
2018-03-06T10:02:01.371Z,12.90
2018-03-06T10:04:28.963Z,12.90
2018-03-06T10:06:56.669Z,12.30
2018-03-06T10:09:25.026Z,10.90
2018-03-06T10:11:52.683Z,10.80
2018-03-06T10:14:20.357Z,10.90
2018-03-06T10:16:48.094Z,11.00
2018-03-06T10:19:16.078Z,11.10
2018-03-06T10:21:44.015Z,11.40
2018-03-06T10:24:11.916Z,10.80
2018-03-06T10:26:39.672Z,9.80
2018-03-06T10:29:08.223Z,11.20
2018-03-06T10:31:36.069Z,11.10
2018-03-06T10:34:04.124Z,11.30
2018-03-06T10:36:32.110Z,11.00
2018-03-06T10:39:00.648Z,11.30
2018-03-06T10:41:28.247Z,11.30
2018-03-06T10:43:55.892Z,11.10
2018-03-06T10:46:24.522Z,10.90
2018-03-06T10:49:05.381Z,10.80
2018-03-06T10:51:33.729Z,11.00
2018-03-06T10:54:01.360Z,11.40
2018-03-06T10:56:29.019Z,11.40
2018-03-06T10:58:56.677Z,11.40
2018-03-06T11:01:25.389Z,11.40
2018-03-06T11:03:53.005Z,11.60
2018-03-06T11:06:20.772Z,11.00
2018-03-06T11:08:48.380Z,11.20
2018-03-06T11:11:15.998Z,11.10
2018-03-06T11:13:43.677Z,11.00
2018-03-06T11:16:11.280Z,11.00
2018-03-06T11:18:38.992Z,11.30
2018-03-06T11:21:06.585Z,10.90
2018-03-06T11:23:34.167Z,10.90
2018-03-06T11:26:02.608Z,11.10
2018-03-06T11:28:30.199Z,11.10
2018-03-06T11:30:57.868Z,11.30
2018-03-06T11:33:25.485Z,11.30
2018-03-06T11:35:53.103Z,11.10
2018-03-06T11:38:21.560Z,10.70
2018-03-06T11:40:49.204Z,10.70
2018-03-06T11:43:16.863Z,10.70
2018-03-06T11:45:44.478Z,11.00
2018-03-06T11:48:12.174Z,11.10
2018-03-06T11:50:39.854Z,10.80
2018-03-06T11:53:07.484Z,10.90
2018-03-06T11:55:35.064Z,10.60
2018-03-06T11:58:02.739Z,10.40
2018-03-06T12:00:30.467Z,10.60
2018-03-06T12:02:58.044Z,10.90
2018-03-06T12:05:25.775Z,11.10
2018-03-06T12:07:53.418Z,11.10
2018-03-06T12:10:21.131Z,10.50
2018-03-06T12:12:48.747Z,10.40
2018-03-06T12:15:16.401Z,10.80
2018-03-06T12:17:44.064Z,11.20
2018-03-06T12:20:11.663Z,11.90
2018-03-06T12:22:39.305Z,12.20
2018-03-06T12:25:06.946Z,12.40
2018-03-06T12:27:34.590Z,12.50
2018-03-06T12:30:02.243Z,12.40
2018-03-06T12:32:29.901Z,11.80
2018-03-06T12:34:57.541Z,11.50
2018-03-06T12:37:25.165Z,11.00
2018-03-06T12:39:53.223Z,11.30
2018-03-06T12:42:20.890Z,11.50
2018-03-06T12:44:48.523Z,11.50
2018-03-06T12:47:16.117Z,11.10
2018-03-06T12:49:43.774Z,11.30
2018-03-06T12:52:11.587Z,11.30
2018-03-06T12:54:39.193Z,11.10
2018-03-06T12:57:06.847Z,10.90
2018-03-06T12:59:35.256Z,11.10
2018-03-06T13:02:02.927Z,11.10
2018-03-06T13:04:30.562Z,11.30
2018-03-06T13:06:58.269Z,11.50
2018-03-06T13:09:26.675Z,11.90
2018-03-06T13:11:54.487Z,11.90
2018-03-06T13:14:22.150Z,12.00
2018-03-06T13:16:49.797Z,11.90
2018-03-06T13:19:17.453Z,11.60
2018-03-06T13:21:45.075Z,11.40
2018-03-06T13:24:12.706Z,11.20
2018-03-06T13:26:40.371Z,11.40
2018-03-06T13:29:07.978Z,11.30
2018-03-06T13:31:35.662Z,11.00
2018-03-06T13:34:03.299Z,11.10
2018-03-06T13:36:30.937Z,10.90
2018-03-06T13:38:59.687Z,11.10
2018-03-06T13:41:27.493Z,11.20
2018-03-06T13:43:56.109Z,11.50
2018-03-06T13:46:25.244Z,11.70
2018-03-06T13:48:52.939Z,11.80
2018-03-06T13:51:21.288Z,11.70
2018-03-06T13:53:48.923Z,11.70
2018-03-06T13:56:16.534Z,11.90
2018-03-06T13:58:45.078Z,12.20
2018-03-06T14:01:12.734Z,12.20
2018-03-06T14:03:40.318Z,12.20
2018-03-06T14:06:08.776Z,12.60
2018-03-06T14:08:36.395Z,12.50
2018-03-06T14:11:04.793Z,11.90
2018-03-06T14:13:32.544Z,11.80
2018-03-06T14:16:00.214Z,11.70
2018-03-06T14:18:27.922Z,11.80
2018-03-06T14:20:55.519Z,11.90
2018-03-06T14:23:23.184Z,11.90
2018-03-06T14:25:50.877Z,11.60
2018-03-06T14:28:18.482Z,11.60
2018-03-06T14:30:46.110Z,11.50
2018-03-06T14:33:13.730Z,11.70
2018-03-06T14:35:41.443Z,11.50
2018-03-06T14:38:09.072Z,11.60
2018-03-06T14:40:36.700Z,11.70
2018-03-06T14:43:05.117Z,11.60
2018-03-06T14:45:32.740Z,11.60
2018-03-06T14:48:00.388Z,11.60
2018-03-06T14:50:28.033Z,11.40
2018-03-06T14:52:55.668Z,11.20
2018-03-06T14:55:23.254Z,11.20
2018-03-06T14:57:50.937Z,11.50
2018-03-06T15:00:18.595Z,11.40
2018-03-06T15:02:46.239Z,11.00
2018-03-06T15:05:13.914Z,11.10
2018-03-06T15:07:41.578Z,11.40
2018-03-06T15:10:09.272Z,11.50
2018-03-06T15:12:37.656Z,11.70
2018-03-06T15:15:05.340Z,11.60
2018-03-06T15:17:33.723Z,11.20
2018-03-06T15:20:01.351Z,11.20
2018-03-06T15:22:29.030Z,11.30
2018-03-06T15:24:57.391Z,11.30
2018-03-06T15:27:25.012Z,11.30
2018-03-06T15:29:52.625Z,11.20
2018-03-06T15:32:21.013Z,11.20
2018-03-06T15:34:51.078Z,11.20
2018-03-06T15:37:19.534Z,11.00
2018-03-06T15:39:47.166Z,11.00
2018-03-06T15:42:24.662Z,11.00
2018-03-06T15:44:52.974Z,11.00
2018-03-06T15:47:20.562Z,11.00
2018-03-06T15:49:48.204Z,11.00
2018-03-06T15:52:15.790Z,11.00
2018-03-06T15:54:44.204Z,10.80
2018-03-06T15:57:11.873Z,10.80
2018-03-06T15:59:40.339Z,10.90
2018-03-06T16:02:08.698Z,10.80
2018-03-06T16:04:36.314Z,10.80
2018-03-06T16:07:03.983Z,10.80
2018-03-06T16:09:31.660Z,10.90
2018-03-06T16:11:59.330Z,10.90
2018-03-06T16:14:27.064Z,10.80
2018-03-06T16:16:54.713Z,10.80
2018-03-06T16:19:23.118Z,10.70
2018-03-06T16:21:50.987Z,10.70
2018-03-06T16:24:18.747Z,10.70
2018-03-06T16:26:46.406Z,10.60
2018-03-06T16:29:14.026Z,10.60
2018-03-06T16:31:54.391Z,10.60
2018-03-06T16:34:22.042Z,10.60
2018-03-06T16:36:49.739Z,10.40
2018-03-06T16:39:18.132Z,10.20
2018-03-06T16:41:45.790Z,10.20
2018-03-06T16:44:14.179Z,10.20
2018-03-06T16:46:41.811Z,10.20
2018-03-06T16:49:10.170Z,10.10
2018-03-06T16:51:37.825Z,10.10
2018-03-06T16:54:06.281Z,10.10
2018-03-06T16:56:33.880Z,10.10
2018-03-06T16:59:01.491Z,10.10
2018-03-06T17:01:29.194Z,10.10
2018-03-06T17:03:56.819Z,10.10
2018-03-06T17:06:24.437Z,10.10
2018-03-06T17:08:52.025Z,10.10
2018-03-06T17:11:20.431Z,10.00
2018-03-06T17:13:48.034Z,10.00
2018-03-06T17:16:15.634Z,10.00
2018-03-06T17:18:43.250Z,9.90
2018-03-06T17:21:10.833Z,9.80
2018-03-06T17:23:39.451Z,9.70
2018-03-06T17:26:07.545Z,9.70
2018-03-06T17:28:35.180Z,9.60
2018-03-06T17:31:02.799Z,9.50
2018-03-06T17:33:30.615Z,9.40
2018-03-06T17:35:58.363Z,9.30
2018-03-06T17:38:26.752Z,9.10
2018-03-06T17:40:54.327Z,9.10
2018-03-06T17:43:21.955Z,9.00
2018-03-06T17:45:49.600Z,9.00
2018-03-06T17:48:17.974Z,8.90
2018-03-06T17:50:46.378Z,8.90
2018-03-06T17:53:14.812Z,8.90
2018-03-06T17:55:42.474Z,8.90
2018-03-06T17:58:10.078Z,8.80
2018-03-06T18:00:38.442Z,8.80
2018-03-06T18:03:06.149Z,8.80
2018-03-06T18:05:33.744Z,8.70
2018-03-06T18:08:01.370Z,8.70
2018-03-06T18:10:28.999Z,8.60
2018-03-06T18:12:57.391Z,8.40
2018-03-06T18:15:25.799Z,8.30
2018-03-06T18:17:53.463Z,8.30
2018-03-06T18:20:21.073Z,8.20
2018-03-06T18:22:48.666Z,8.20
2018-03-06T18:25:16.402Z,8.10
2018-03-06T18:27:44.001Z,8.10
2018-03-06T18:30:11.581Z,8.20
2018-03-06T18:32:39.270Z,8.20
2018-03-06T18:35:06.866Z,8.10
2018-03-06T18:37:34.552Z,8.10
2018-03-06T18:40:02.194Z,8.10
2018-03-06T18:42:29.781Z,8.10
2018-03-06T18:44:57.428Z,8.00
2018-03-06T18:47:25.019Z,8.10
2018-03-06T18:50:01.453Z,8.00
2018-03-06T18:52:29.039Z,8.00
2018-03-06T18:54:56.661Z,7.90
2018-03-06T18:57:25.200Z,7.50
2018-03-06T19:00:04.846Z,7.50
2018-03-06T19:02:44.354Z,7.50
2018-03-06T19:05:34.335Z,7.50
2018-03-06T19:08:01.949Z,7.40
2018-03-06T19:10:29.618Z,7.40
2018-03-06T19:12:57.213Z,7.40
2018-03-06T19:15:24.962Z,7.30
2018-03-06T19:17:53.342Z,7.30
2018-03-06T19:20:21.715Z,7.40
2018-03-06T19:22:49.396Z,7.40
2018-03-06T19:25:17.799Z,7.30
2018-03-06T19:27:45.401Z,7.30
2018-03-06T19:30:13.030Z,7.30
2018-03-06T19:32:40.621Z,7.20
2018-03-06T19:35:08.276Z,7.10
2018-03-06T19:37:35.895Z,7.10
2018-03-06T19:40:03.535Z,7.10
2018-03-06T19:42:31.115Z,7.20
2018-03-06T19:45:00.747Z,7.20
2018-03-06T19:47:28.370Z,7.20
2018-03-06T19:49:56.764Z,7.20
2018-03-06T19:52:25.251Z,7.20
2018-03-06T19:54:52.839Z,7.20
2018-03-06T19:57:20.412Z,7.20
2018-03-06T19:59:48.036Z,7.20
2018-03-06T20:02:15.686Z,7.30
2018-03-06T20:04:43.299Z,7.40
2018-03-06T20:07:10.986Z,7.50
2018-03-06T20:09:38.621Z,7.60
2018-03-06T20:12:06.286Z,7.70
2018-03-06T20:14:39.613Z,7.80
2018-03-06T20:17:08.018Z,7.90
2018-03-06T20:19:40.320Z,8.00
2018-03-06T20:22:07.904Z,7.90
2018-03-06T20:24:41.201Z,8.00
2018-03-06T20:27:08.836Z,8.10
2018-03-06T20:29:36.423Z,8.20
2018-03-06T20:32:09.768Z,8.20
2018-03-06T20:34:37.354Z,8.20
2018-03-06T20:37:04.978Z,8.20
2018-03-06T20:39:39.002Z,8.20
2018-03-06T20:42:06.654Z,8.20
2018-03-06T20:44:34.990Z,8.30
2018-03-06T20:47:08.262Z,8.30
2018-03-06T20:49:35.850Z,8.30
2018-03-06T20:52:03.518Z,8.30
2018-03-06T20:54:36.679Z,8.30
2018-03-06T20:57:04.309Z,8.20
2018-03-06T20:59:31.946Z,8.20
2018-03-06T21:02:06.037Z,8.20
2018-03-06T21:04:33.628Z,8.10
2018-03-06T21:07:02.022Z,8.00
2018-03-06T21:09:29.622Z,8.00
2018-03-06T21:11:57.262Z,8.00
2018-03-06T21:14:24.843Z,8.00
2018-03-06T21:16:52.472Z,8.10
2018-03-06T21:19:20.056Z,8.10
2018-03-06T21:21:47.711Z,8.10
2018-03-06T21:24:15.299Z,8.10
2018-03-06T21:26:42.878Z,8.10
2018-03-06T21:29:10.499Z,8.10
2018-03-06T21:31:38.078Z,8.10
2018-03-06T21:34:05.697Z,8.10
2018-03-06T21:36:33.276Z,8.10
2018-03-06T21:39:00.898Z,8.10
2018-03-06T21:41:28.516Z,8.00
2018-03-06T21:43:56.104Z,7.90
2018-03-06T21:46:23.761Z,8.00
2018-03-06T21:48:51.383Z,8.00
2018-03-06T21:51:19.019Z,7.90
2018-03-06T21:53:46.648Z,7.80
2018-03-06T21:56:14.215Z,7.80
2018-03-06T21:58:41.830Z,7.90
2018-03-06T22:01:09.445Z,7.80
2018-03-06T22:03:37.807Z,7.90
2018-03-06T22:06:05.438Z,7.90
2018-03-06T22:08:33.027Z,8.00
2018-03-06T22:11:00.665Z,8.10
2018-03-06T22:13:28.229Z,8.00
2018-03-06T22:15:55.835Z,8.00
2018-03-06T22:18:23.427Z,8.10
2018-03-06T22:20:51.043Z,8.00
2018-03-06T22:23:18.628Z,8.10
2018-03-06T22:25:46.980Z,8.10
2018-03-06T22:28:14.609Z,8.10
2018-03-06T22:30:42.188Z,8.10
2018-03-06T22:33:09.810Z,8.00
2018-03-06T22:35:37.396Z,8.10
2018-03-06T22:38:05.022Z,8.10
2018-03-06T22:40:32.607Z,8.00
2018-03-06T22:43:00.222Z,7.90
2018-03-06T22:45:27.802Z,7.80
2018-03-06T22:47:56.151Z,7.90
2018-03-06T22:50:23.779Z,7.90
2018-03-06T22:52:51.382Z,7.90
2018-03-06T22:55:18.967Z,7.80
2018-03-06T22:57:47.375Z,7.80
2018-03-06T23:00:15.045Z,7.70
2018-03-06T23:02:42.640Z,7.80
2018-03-06T23:05:10.250Z,7.70
2018-03-06T23:07:37.834Z,7.70
2018-03-06T23:10:05.484Z,7.70
2018-03-06T23:12:33.083Z,7.70
2018-03-06T23:15:00.716Z,7.70
2018-03-06T23:17:28.340Z,7.70
2018-03-06T23:19:56.775Z,7.70
2018-03-06T23:22:24.344Z,7.70
2018-03-06T23:24:51.997Z,7.70
2018-03-06T23:27:19.591Z,7.70
2018-03-06T23:29:47.235Z,7.80
2018-03-06T23:32:14.890Z,7.80
2018-03-06T23:34:42.534Z,7.80
2018-03-06T23:37:10.285Z,7.80
2018-03-06T23:39:37.982Z,7.80
2018-03-06T23:42:05.659Z,7.80
2018-03-06T23:44:33.322Z,7.70
2018-03-06T23:47:01.093Z,7.70
2018-03-06T23:49:28.778Z,7.70
2018-03-06T23:51:57.196Z,7.60
2018-03-06T23:54:24.826Z,7.60
2018-03-06T23:56:52.502Z,7.50
2018-03-06T23:59:20.142Z,7.50
